sensor_id;sensor_type;location;lat;lon;timestamp;P1;durP1;ratioP1;P2;durP2;ratioP2
26838;SDS011;40088;51.214;6.786;2023-05-07T00:08:10;2.70;;;2.33;;
26838;SDS011;40088;51.214;6.786;2023-05-07T00:18:11;3.58;;;2.50;;
26838;SDS011;40088;51.214;6.786;2023-05-07T00:28:11;2.90;;;2.42;;
26838;SDS011;40088;51.214;6.786;2023-05-07T00:38:11;3.30;;;2.30;;
26838;SDS011;40088;51.214;6.786;2023-05-07T00:48:12;2.58;;;2.28;;
26838;SDS011;40088;51.214;6.786;2023-05-07T00:58:13;2.97;;;2.20;;
26838;SDS011;40088;51.214;6.786;2023-05-07T01:08:13;3.17;;;2.33;;
26838;SDS011;40088;51.214;6.786;2023-05-07T01:18:16;2.77;;;2.20;;
26838;SDS011;40088;51.214;6.786;2023-05-07T01:28:16;3.78;;;2.33;;
26838;SDS011;40088;51.214;6.786;2023-05-07T01:38:17;3.20;;;2.40;;
26838;SDS011;40088;51.214;6.786;2023-05-07T01:48:18;2.95;;;2.45;;
26838;SDS011;40088;51.214;6.786;2023-05-07T01:58:19;2.53;;;2.13;;
26838;SDS011;40088;51.214;6.786;2023-05-07T02:08:19;2.20;;;2.00;;
26838;SDS011;40088;51.214;6.786;2023-05-07T02:18:20;2.85;;;2.25;;
26838;SDS011;40088;51.214;6.786;2023-05-07T02:28:20;2.70;;;2.25;;
26838;SDS011;40088;51.214;6.786;2023-05-07T02:38:21;2.88;;;2.00;;
26838;SDS011;40088;51.214;6.786;2023-05-07T02:48:22;2.50;;;2.08;;
26838;SDS011;40088;51.214;6.786;2023-05-07T02:58:22;2.58;;;2.10;;
26838;SDS011;40088;51.214;6.786;2023-05-07T03:08:23;2.25;;;2.05;;
26838;SDS011;40088;51.214;6.786;2023-05-07T03:18:24;2.72;;;2.22;;
26838;SDS011;40088;51.214;6.786;2023-05-07T03:28:24;1.83;;;1.67;;
26838;SDS011;40088;51.214;6.786;2023-05-07T03:38:24;2.40;;;1.90;;
26838;SDS011;40088;51.214;6.786;2023-05-07T03:48:25;2.47;;;1.88;;
26838;SDS011;40088;51.214;6.786;2023-05-07T03:58:25;2.10;;;1.90;;
26838;SDS011;40088;51.214;6.786;2023-05-07T04:08:26;2.42;;;1.70;;
26838;SDS011;40088;51.214;6.786;2023-05-07T04:18:26;2.10;;;1.90;;
26838;SDS011;40088;51.214;6.786;2023-05-07T04:28:26;3.20;;;2.20;;
26838;SDS011;40088;51.214;6.786;2023-05-07T04:38:27;1.73;;;1.63;;
26838;SDS011;40088;51.214;6.786;2023-05-07T04:48:28;2.75;;;1.85;;
26838;SDS011;40088;51.214;6.786;2023-05-07T04:58:28;3.22;;;1.95;;
26838;SDS011;40088;51.214;6.786;2023-05-07T05:08:31;2.40;;;1.70;;
26838;SDS011;40088;51.214;6.786;2023-05-07T05:18:32;1.90;;;1.67;;
26838;SDS011;40088;51.214;6.786;2023-05-07T05:28:32;2.80;;;2.08;;
26838;SDS011;40088;51.214;6.786;2023-05-07T05:38:32;1.83;;;1.40;;
26838;SDS011;40088;51.214;6.786;2023-05-07T05:48:33;1.83;;;1.70;;
26838;SDS011;40088;51.214;6.786;2023-05-07T05:58:33;2.42;;;2.03;;
26838;SDS011;40088;51.214;6.786;2023-05-07T06:08:34;3.08;;;2.00;;
26838;SDS011;40088;51.214;6.786;2023-05-07T06:18:34;2.38;;;1.75;;
26838;SDS011;40088;51.214;6.786;2023-05-07T06:28:36;3.00;;;1.80;;
26838;SDS011;40088;51.214;6.786;2023-05-07T06:38:36;1.77;;;1.50;;
26838;SDS011;40088;51.214;6.786;2023-05-07T06:48:36;2.33;;;1.48;;
26838;SDS011;40088;51.214;6.786;2023-05-07T06:58:37;2.10;;;1.67;;
26838;SDS011;40088;51.214;6.786;2023-05-07T07:08:37;2.60;;;1.80;;
26838;SDS011;40088;51.214;6.786;2023-05-07T07:18:38;1.77;;;1.40;;
26838;SDS011;40088;51.214;6.786;2023-05-07T07:28:42;3.75;;;2.00;;
26838;SDS011;40088;51.214;6.786;2023-05-07T07:38:43;3.92;;;1.60;;
26838;SDS011;40088;51.214;6.786;2023-05-07T07:48:44;2.05;;;1.60;;
26838;SDS011;40088;51.214;6.786;2023-05-07T07:58:44;1.65;;;1.55;;
26838;SDS011;40088;51.214;6.786;2023-05-07T08:08:44;1.75;;;1.50;;
26838;SDS011;40088;51.214;6.786;2023-05-07T08:18:44;2.30;;;1.92;;
26838;SDS011;40088;51.214;6.786;2023-05-07T08:28:45;3.22;;;1.40;;
26838;SDS011;40088;51.214;6.786;2023-05-07T08:38:45;1.67;;;1.25;;
26838;SDS011;40088;51.214;6.786;2023-05-07T08:48:48;1.80;;;1.55;;
26838;SDS011;40088;51.214;6.786;2023-05-07T08:58:49;2.42;;;1.50;;
26838;SDS011;40088;51.214;6.786;2023-05-07T09:08:51;1.95;;;1.45;;
26838;SDS011;40088;51.214;6.786;2023-05-07T09:18:53;1.40;;;1.30;;
26838;SDS011;40088;51.214;6.786;2023-05-07T09:28:54;1.70;;;1.42;;
26838;SDS011;40088;51.214;6.786;2023-05-07T09:38:54;1.88;;;1.63;;
26838;SDS011;40088;51.214;6.786;2023-05-07T09:48:59;11.05;;;2.35;;
26838;SDS011;40088;51.214;6.786;2023-05-07T09:59:02;21.75;;;3.53;;
26838;SDS011;40088;51.214;6.786;2023-05-07T10:09:04;25.00;;;3.50;;
26838;SDS011;40088;51.214;6.786;2023-05-07T10:19:06;20.45;;;4.20;;
26838;SDS011;40088;51.214;6.786;2023-05-07T10:29:18;13.70;;;3.70;;
26838;SDS011;40088;51.214;6.786;2023-05-07T10:39:29;13.13;;;2.53;;
26838;SDS011;40088;51.214;6.786;2023-05-07T10:49:30;7.77;;;2.40;;
26838;SDS011;40088;51.214;6.786;2023-05-07T10:59:31;6.53;;;2.20;;
26838;SDS011;40088;51.214;6.786;2023-05-07T11:19:53;5.25;;;1.90;;
26838;SDS011;40088;51.214;6.786;2023-05-07T11:29:55;3.33;;;1.80;;
26838;SDS011;40088;51.214;6.786;2023-05-07T11:40:03;4.72;;;1.70;;
26838;SDS011;40088;51.214;6.786;2023-05-07T11:50:06;4.82;;;1.90;;
26838;SDS011;40088;51.214;6.786;2023-05-07T12:00:07;3.10;;;1.83;;
26838;SDS011;40088;51.214;6.786;2023-05-07T12:10:09;5.80;;;2.00;;
26838;SDS011;40088;51.214;6.786;2023-05-07T12:20:11;4.07;;;1.77;;
26838;SDS011;40088;51.214;6.786;2023-05-07T12:30:12;2.03;;;1.63;;
26838;SDS011;40088;51.214;6.786;2023-05-07T12:40:13;2.70;;;2.23;;
26838;SDS011;40088;51.214;6.786;2023-05-07T12:50:14;3.22;;;2.17;;
26838;SDS011;40088;51.214;6.786;2023-05-07T13:00:15;2.30;;;1.63;;
26838;SDS011;40088;51.214;6.786;2023-05-07T13:10:16;1.83;;;1.60;;
26838;SDS011;40088;51.214;6.786;2023-05-07T13:20:17;1.75;;;1.60;;
26838;SDS011;40088;51.214;6.786;2023-05-07T13:30:17;2.45;;;2.00;;
26838;SDS011;40088;51.214;6.786;2023-05-07T13:40:18;3.28;;;1.75;;
26838;SDS011;40088;51.214;6.786;2023-05-07T13:50:19;3.28;;;1.70;;
26838;SDS011;40088;51.214;6.786;2023-05-07T14:00:19;2.42;;;1.67;;
26838;SDS011;40088;51.214;6.786;2023-05-07T14:10:20;3.40;;;2.40;;
26838;SDS011;40088;51.214;6.786;2023-05-07T14:20:20;2.00;;;1.80;;
26838;SDS011;40088;51.214;6.786;2023-05-07T14:30:20;2.40;;;1.98;;
26838;SDS011;40088;51.214;6.786;2023-05-07T14:40:22;2.63;;;1.83;;
26838;SDS011;40088;51.214;6.786;2023-05-07T14:50:22;2.65;;;2.28;;
26838;SDS011;40088;51.214;6.786;2023-05-07T15:00:23;3.15;;;2.30;;
26838;SDS011;40088;51.214;6.786;2023-05-07T15:10:23;2.25;;;1.95;;
26838;SDS011;40088;51.214;6.786;2023-05-07T15:20:23;2.42;;;2.22;;
26838;SDS011;40088;51.214;6.786;2023-05-07T15:30:24;2.50;;;2.20;;
26838;SDS011;40088;51.214;6.786;2023-05-07T15:40:24;3.65;;;2.33;;
26838;SDS011;40088;51.214;6.786;2023-05-07T15:50:25;3.70;;;2.30;;
26838;SDS011;40088;51.214;6.786;2023-05-07T16:00:26;5.00;;;3.00;;
26838;SDS011;40088;51.214;6.786;2023-05-07T16:10:30;3.75;;;2.78;;
26838;SDS011;40088;51.214;6.786;2023-05-07T16:20:30;3.80;;;2.70;;
26838;SDS011;40088;51.214;6.786;2023-05-07T16:30:31;3.00;;;2.30;;
26838;SDS011;40088;51.214;6.786;2023-05-07T16:40:31;7.20;;;2.78;;
26838;SDS011;40088;51.214;6.786;2023-05-07T16:50:31;5.40;;;3.10;;
26838;SDS011;40088;51.214;6.786;2023-05-07T17:00:31;4.85;;;3.05;;
26838;SDS011;40088;51.214;6.786;2023-05-07T17:10:32;4.18;;;2.88;;
26838;SDS011;40088;51.214;6.786;2023-05-07T17:20:33;4.60;;;3.28;;
26838;SDS011;40088;51.214;6.786;2023-05-07T17:30:34;3.72;;;2.70;;
26838;SDS011;40088;51.214;6.786;2023-05-07T17:40:34;3.70;;;3.28;;
26838;SDS011;40088;51.214;6.786;2023-05-07T17:50:34;4.93;;;3.00;;
26838;SDS011;40088;51.214;6.786;2023-05-07T18:00:35;3.53;;;3.03;;
26838;SDS011;40088;51.214;6.786;2023-05-07T18:10:35;3.90;;;3.05;;
26838;SDS011;40088;51.214;6.786;2023-05-07T18:20:36;3.60;;;3.00;;
26838;SDS011;40088;51.214;6.786;2023-05-07T18:30:36;3.20;;;2.90;;
26838;SDS011;40088;51.214;6.786;2023-05-07T18:40:36;4.40;;;2.97;;
26838;SDS011;40088;51.214;6.786;2023-05-07T18:50:42;3.72;;;3.25;;
26838;SDS011;40088;51.214;6.786;2023-05-07T19:00:43;3.30;;;2.85;;
26838;SDS011;40088;51.214;6.786;2023-05-07T19:10:43;3.20;;;2.88;;
26838;SDS011;40088;51.214;6.786;2023-05-07T19:20:44;2.90;;;2.70;;
26838;SDS011;40088;51.214;6.786;2023-05-07T19:30:45;3.97;;;3.10;;
26838;SDS011;40088;51.214;6.786;2023-05-07T19:40:48;4.23;;;2.70;;
26838;SDS011;40088;51.214;6.786;2023-05-07T19:50:48;3.90;;;3.30;;
26838;SDS011;40088;51.214;6.786;2023-05-07T20:00:49;5.50;;;3.40;;
26838;SDS011;40088;51.214;6.786;2023-05-07T20:10:49;4.05;;;3.40;;
26838;SDS011;40088;51.214;6.786;2023-05-07T20:20:50;3.17;;;2.88;;
26838;SDS011;40088;51.214;6.786;2023-05-07T20:30:50;3.78;;;3.38;;
26838;SDS011;40088;51.214;6.786;2023-05-07T20:40:51;4.32;;;3.38;;
26838;SDS011;40088;51.214;6.786;2023-05-07T20:50:51;3.30;;;2.97;;
26838;SDS011;40088;51.214;6.786;2023-05-07T21:00:52;4.55;;;3.10;;
26838;SDS011;40088;51.214;6.786;2023-05-07T21:10:52;5.50;;;3.72;;
26838;SDS011;40088;51.214;6.786;2023-05-07T21:20:53;6.60;;;3.40;;
26838;SDS011;40088;51.214;6.786;2023-05-07T21:30:53;4.88;;;3.38;;
26838;SDS011;40088;51.214;6.786;2023-05-07T21:40:54;4.40;;;3.83;;
26838;SDS011;40088;51.214;6.786;2023-05-07T21:50:59;4.53;;;3.78;;
26838;SDS011;40088;51.214;6.786;2023-05-07T22:00:59;4.28;;;3.47;;
26838;SDS011;40088;51.214;6.786;2023-05-07T22:11:00;4.07;;;3.43;;
26838;SDS011;40088;51.214;6.786;2023-05-07T22:21:00;3.85;;;3.50;;
26838;SDS011;40088;51.214;6.786;2023-05-07T22:31:01;3.97;;;3.50;;
26838;SDS011;40088;51.214;6.786;2023-05-07T22:41:01;5.53;;;3.92;;
26838;SDS011;40088;51.214;6.786;2023-05-07T22:51:02;4.03;;;3.13;;
26838;SDS011;40088;51.214;6.786;2023-05-07T23:01:03;5.20;;;3.53;;
26838;SDS011;40088;51.214;6.786;2023-05-07T23:11:03;5.07;;;3.85;;
26838;SDS011;40088;51.214;6.786;2023-05-07T23:21:03;3.97;;;3.03;;
26838;SDS011;40088;51.214;6.786;2023-05-07T23:31:07;5.13;;;3.97;;
26838;SDS011;40088;51.214;6.786;2023-05-07T23:41:08;5.43;;;3.70;;
26838;SDS011;40088;51.214;6.786;2023-05-07T23:51:08;4.40;;;3.58;;
